Terminal Aerodrome Forecast
Issued by NWS

Home | Current Version | Previous Version | Text Only | Print | Product List | Glossary On
Versions: 1 2 3 4 5 6 7 8 9 10 11 12 13 14 15 16 17 18 19 20 21 22 23 24 25 26 27 28 29 30 31 32
000
FTUS43 KAPX 181120
TAFPLN
TAF
KPLN 181120Z 1812/1912 00000KT P6SM BKN120
     FM182100 VRB03KT P6SM VCSH SCT050 OVC070
     FM190200 00000KT P6SM VCSH OVC040
     FM190300 00000KT P6SM OVC030
     FM190500 00000KT 6SM BR OVC019
     FM190700 00000KT 5SM BR BKN012
     FM190900 VRB03KT 5SM BR BKN009=

USA.gov is the U.S. government's official web portal to all federal, state and local government web resources and services.